Nippers Harbour, Canada
Current Conditions -  °F | °C
As of 3:00 AM on Tuesday 21 Oct 2014 (Local Time) from CYDF Reporting Station
Rain Showers Rain Showers  
Wind Chill: 34°   Ceiling: 3400
Heat Index: 43°   Visibility: 10mi
Dew Point: 37°   Wind: 20mph
Humidity: 81%   Direction: 230°SW
Pressure: 29.61"   Gusts: 31mph
Location:  49.78°N, 55.87°W
Report Text: CYDF 210500Z 23017G27KT 10SM -SHRA BKN034 06/03 A2961 RMK SC7 SLP026
Loading
Personal Weather Stations






























Interactive Weather Map
Tropical Storm Tracking
New forecast layout! Learn more

10-Day Weather Forecast

Advertisements
Track Severe Weather on mobile